Terminal Aerodrome Forecast
Issued by NWS

Home | Current Version | Previous Version | Text Only | Print | Product List | Glossary On
Versions: 1 2 3 4 5 6 7 8 9 10 11 12 13
630
FTAK31 PAJN 011739
TAFAPG
TAF
PAPG 011739Z 0118/0218 VRB05KT 5SM RA BR SCT025 OVC035
     FM020000 08006KT 4SM RA BR OVC025
     FM020600 12010KT 4SM -RA BR OVC020
     FM021200 14008KT 4SM -RA BR OVC010
      AMD LTD TO CLD VIS AND WIND 0206/0215=

USA.gov is the U.S. government's official web portal to all federal, state and local government web resources and services.